Croswell, Michigan
Current Conditions -  °F | °C
As of 6:00 PM on Wednesday 26 Nov 2014 (Local Time) from CYZR Reporting Station
Overcast Overcast  
Wind Chill: -1°   Ceiling: 2900
Heat Index:   Visibility: 9mi
Dew Point: -3°   Wind: 5mph
Humidity: 75%   Direction: 20°NNE
Pressure: 30.09"   Gusts: NA
Location:  43.28°N, 82.62°W
Report Text: CYZR 262300Z AUTO 02004KT 9SM OVC029 01/M03 A3009 RMK SLP197
Loading
Personal Weather Stations






























Interactive Weather Map New forecast layout! Learn more

10-Day Weather Forecast

Advertisements
Track Severe Weather on mobile